createdAt,value
2019-04-04T16:37:08.134Z,14.95
2019-04-04T16:39:38.067Z,14.28
2019-04-04T16:42:07.913Z,23.77
2019-04-04T16:44:37.757Z,22.98
2019-04-04T16:47:07.607Z,17.10
2019-04-04T16:49:38.353Z,22.40
2019-04-04T16:52:08.685Z,23.52
2019-04-04T16:54:38.574Z,24.20
2019-04-04T16:57:08.489Z,24.92
2019-04-04T16:59:38.454Z,22.70
2019-04-04T17:02:08.932Z,27.95
2019-04-04T17:04:38.804Z,29.98
2019-04-04T17:07:09.069Z,18.23
2019-04-04T17:09:38.969Z,25.17
2019-04-04T17:12:14.773Z,28.05
2019-04-04T17:14:40.863Z,20.70
2019-04-04T17:17:10.778Z,18.17
2019-04-04T17:19:40.694Z,28.95
2019-04-04T17:22:10.711Z,27.52
2019-04-04T17:24:40.975Z,23.67
2019-04-04T17:27:11.154Z,24.72
2019-04-04T17:29:41.273Z,24.82
2019-04-04T17:32:13.360Z,22.67
2019-04-04T17:34:43.562Z,21.67
2019-04-04T17:37:14.166Z,22.17
2019-04-04T17:39:44.158Z,19.35
2019-04-04T17:42:22.111Z,26.68
2019-04-04T17:44:45.679Z,17.95
2019-04-04T17:47:15.775Z,16.32
2019-04-04T17:49:45.749Z,20.05
2019-04-04T17:52:15.988Z,22.05
2019-04-04T17:54:46.226Z,19.05
2019-04-04T17:57:16.840Z,22.55
2019-04-04T17:59:47.010Z,17.45
2019-04-04T18:02:17.437Z,19.10
2019-04-04T18:04:48.573Z,25.50
2019-04-04T18:07:18.911Z,16.25
2019-04-04T18:09:48.909Z,18.42
2019-04-04T18:12:19.566Z,18.87
2019-04-04T18:14:50.053Z,17.20
2019-04-04T18:17:22.046Z,16.67
2019-04-04T18:19:51.961Z,13.35
2019-04-04T18:22:21.978Z,15.90
2019-04-04T18:24:52.610Z,19.27
2019-04-04T18:27:22.628Z,16.48
2019-04-04T18:29:52.545Z,16.65
2019-04-04T18:32:22.560Z,12.70
2019-04-04T18:34:53.261Z,15.78
2019-04-04T18:37:23.195Z,11.12
2019-04-04T18:39:53.431Z,14.15
2019-04-04T18:42:23.960Z,13.70
2019-04-04T18:44:53.976Z,12.65
2019-04-04T18:47:23.891Z,11.97
2019-04-04T18:49:53.807Z,13.55
2019-04-04T18:52:23.722Z,13.25
2019-04-04T18:54:53.739Z,14.98
2019-04-04T18:57:23.757Z,11.22
2019-04-04T18:59:53.674Z,12.88
2019-04-04T19:02:23.692Z,15.45
2019-04-04T19:04:53.603Z,14.13
2019-04-04T19:07:23.626Z,14.00
2019-04-04T19:09:53.536Z,11.12
2019-04-04T19:12:23.453Z,13.85
2019-04-04T19:14:53.863Z,11.68
2019-04-04T19:17:36.288Z,10.68
2019-04-04T19:20:09.995Z,8.43
2019-04-04T19:22:39.420Z,9.08
2019-04-04T19:25:09.307Z,13.70
2019-04-04T19:27:39.129Z,8.10
2019-04-04T19:30:09.548Z,9.90
2019-04-04T19:32:39.666Z,11.73
2019-04-04T19:35:09.582Z,8.80
2019-04-04T19:37:39.597Z,16.20
2019-04-04T19:40:09.615Z,9.60
2019-04-04T19:42:39.632Z,9.60
2019-04-04T19:45:09.650Z,10.08
2019-04-04T19:47:39.973Z,8.08
2019-04-04T19:50:11.018Z,10.72
2019-04-04T19:52:42.363Z,11.22
2019-04-04T19:55:12.278Z,12.20
2019-04-04T19:57:42.123Z,8.18
2019-04-04T20:00:12.619Z,6.50
2019-04-04T20:02:44.103Z,8.30
2019-04-04T20:05:14.589Z,7.78
2019-04-04T20:07:44.520Z,7.85
2019-04-04T20:10:14.430Z,9.55
2019-04-04T20:12:44.653Z,7.00
2019-04-04T20:15:14.755Z,7.67
2019-04-04T20:17:47.555Z,6.12
2019-04-04T20:20:17.471Z,8.03
2019-04-04T20:22:47.383Z,5.62
2019-04-04T20:25:17.298Z,7.45
2019-04-04T20:27:54.463Z,6.22
2019-04-04T20:30:21.942Z,4.97
2019-04-04T20:32:51.856Z,8.65
2019-04-04T20:35:21.716Z,5.08
2019-04-04T20:37:51.585Z,7.10
2019-04-04T20:40:21.422Z,6.20
2019-04-04T20:42:51.414Z,6.20
2019-04-04T20:45:21.248Z,5.00
2019-04-04T20:47:51.140Z,16.82
2019-04-04T20:50:21.054Z,15.85
2019-04-04T20:52:50.970Z,11.05
2019-04-04T20:55:21.908Z,8.53
2019-04-04T20:57:51.749Z,9.35
2019-04-04T21:00:21.635Z,8.18
2019-04-04T21:02:51.552Z,11.33
2019-04-04T21:05:21.465Z,12.73
2019-04-04T21:07:51.434Z,8.23
2019-04-04T21:10:21.295Z,5.95
2019-04-04T21:12:51.210Z,5.72
2019-04-04T21:15:21.129Z,7.72
2019-04-04T21:17:51.039Z,6.80
2019-04-04T21:20:20.954Z,5.53
2019-04-04T21:22:50.798Z,6.30
2019-04-04T21:25:21.092Z,4.55
2019-04-04T21:27:51.109Z,9.13
2019-04-04T21:30:21.026Z,5.53
2019-04-04T21:32:50.863Z,4.10
2019-04-04T21:35:20.752Z,4.22
2019-04-04T21:37:50.666Z,3.80
2019-04-04T21:40:20.562Z,5.22
2019-04-04T21:42:50.497Z,6.50
2019-04-04T21:45:20.410Z,4.80
2019-04-04T21:47:50.326Z,6.42
2019-04-04T21:50:20.547Z,3.52
2019-04-04T21:52:50.464Z,6.62
2019-04-04T21:55:20.365Z,3.27
2019-04-04T21:57:50.293Z,3.58
2019-04-04T22:00:21.027Z,7.12
2019-04-04T22:02:52.579Z,5.30
2019-04-04T22:05:22.495Z,3.55
2019-04-04T22:07:52.391Z,3.72
2019-04-04T22:10:23.234Z,4.80
2019-04-04T22:12:53.141Z,2.90
2019-04-04T22:15:23.179Z,4.85
2019-04-04T22:17:52.997Z,4.10
2019-04-04T22:20:22.841Z,5.00
2019-04-04T22:22:53.128Z,3.37
2019-04-04T22:25:23.043Z,6.55
2019-04-04T22:27:53.042Z,3.83
2019-04-04T22:30:22.976Z,3.37
2019-04-04T22:32:53.094Z,5.65
2019-04-04T22:35:22.989Z,4.65
2019-04-04T22:37:52.903Z,4.05
2019-04-04T22:40:22.818Z,6.12
2019-04-04T22:42:53.042Z,4.92
2019-04-04T22:45:22.955Z,4.15
2019-04-04T22:47:52.972Z,4.47
2019-04-04T22:50:23.812Z,3.77
2019-04-04T22:52:53.725Z,5.22
2019-04-04T22:55:26.400Z,4.83
2019-04-04T22:57:55.191Z,3.90
2019-04-04T23:00:25.664Z,3.62
2019-04-04T23:02:56.557Z,3.52
2019-04-04T23:05:26.574Z,2.87
2019-04-04T23:07:56.490Z,3.80
2019-04-04T23:10:26.404Z,3.20
2019-04-04T23:12:56.421Z,4.25
2019-04-04T23:15:26.338Z,3.40
2019-04-04T23:17:56.255Z,3.75
2019-04-04T23:20:28.305Z,3.65
2019-04-04T23:23:01.012Z,6.25
2019-04-04T23:25:29.886Z,2.90
2019-04-04T23:28:00.109Z,3.92
2019-04-04T23:30:30.027Z,2.77
2019-04-04T23:33:00.248Z,2.60
2019-04-04T23:35:30.468Z,3.30
2019-04-04T23:38:00.385Z,4.33
2019-04-04T23:40:30.706Z,4.95
2019-04-04T23:43:00.620Z,2.70
2019-04-04T23:45:30.540Z,3.85
2019-04-04T23:48:00.451Z,2.47
2019-04-04T23:50:30.369Z,3.17
2019-04-04T23:53:00.691Z,3.60
2019-04-04T23:55:30.608Z,2.40
2019-04-04T23:58:00.521Z,2.37
